Kuqa, China
Current Conditions -  °F | °C
As of 8:30 PM on Saturday 25 Oct 2014 (Local Time) from ZWWW Reporting Station
Smoke Smoke  
Wind Chill: 59°   Ceiling: Unl
Heat Index: 59°   Visibility: 3mi
Dew Point: 45°   Wind: 2mph
Humidity: 59%   Direction: NA
Pressure: 30.09"   Gusts: NA
Location:  41.72°N, 82.95°E
Report Text: ZWWW 251230Z VRB01MPS 5000 FU NSC 15/07 Q1019 NOSIG
Loading
Personal Weather Stations






























Interactive Weather Map
Tropical Storm Tracking
New forecast layout! Learn more

10-Day Weather Forecast

Advertisements
Track Severe Weather on mobile